Blue Ridge, GA

1:21 AM EDT on September 24, 2014 (GMT -0400)
Lake Forest | Change Station
CLOSE
Current Station
Personal Weather Station
Location: Blue Ridge, GA
Elevation: 1785 ft
Nearby Weather Stations

Elev 1785 ft 34.87 °N, 84.29 °W | Updated 4 seconds ago

Partly Cloudy
Partly Cloudy
56.3 °F
Feels Like 56.3 °F
N
0.0
Wind Variable Wind from SW
Gusts 0.7 mph

Today
High -- | Low -- °F
--% Chance of Precip.
Yesterday
High -- | Low -- °F
Precip. -- in
7:26 AM 7:31 PM
Waning Crescent, 0% visible
Pressure 30.28 in
Visibility 10.0 miles
Clouds Overcast 300 ft
Dew Point 49 °F
Humidity 76%
Rainfall 0.00 in
Snow Depth Not available.
UV 0 out of 12
Pollen 6.40 out of 12
Air Quality Not available.
Flu Activity Not available.
METAR KRHP 240515Z AUTO 00000KT 10SM OVC003 13/12 A3028 RMK AO2 T01250123

More Conditions Fewer Conditions

Pressure 30.28 in
Visibility 10.0 miles
Clouds Overcast 300 ft
Dew Point 49 °F
Humidity 76%
Rainfall 0.00 in
Snow Depth Not available.
UV 0 out of 12
Pollen 6.40 out of 12
Air Quality Not available.
Flu Activity Not available.
METAR KRHP 240515Z AUTO 00000KT 10SM OVC003 13/12 A3028 RMK AO2 T01250123

More Conditions Fewer Conditions

10-Day Weather Forecast

Almanac

Astronomy

Sep. 24, 2014 Rise Set
Actual Time 7:26 AM EDT 7:31 PM EDT
Civil Twilight 7:01 AM EDT 7:56 PM EDT
Nautical Twilight 6:32 AM EDT 8:25 PM EDT
Astronomical Twilight 6:02 AM EDT 8:55 PM EDT
Moon 7:44 AM EDT 7:44 PM EDT
Length of Visible Light 12h 54m
Length of Day
12h 04m
Tomorrow will be 2m 10s shorter.
Waning Crescent, 0% of the Moon is Illuminated
Today
Waning Crescent
Sep 24
New
Oct 1
First Quarter
Oct 8
Full
Oct 15
Last Quarter

Today's Extremes

State Highs State Lows

Community

WunderPhotos

Upload Photos

1,755,891 photos uploaded!

WunderBlogs® & News

Nearby

Snow Depth

Station Depth Elevation
No new snow has been reported.

Earthquake Activity

City Distance Mag. Time & Date
No recent earthquake activity has been reported nearby.
Minimum magnitude displayed is 2.5.

Coastal Water Temperatures

Place Temperature
No Stations Reporting

Nearby Weather Stations